Gobowen, United Kingdom
Current Conditions -  °F | °C
As of 8:50 AM on Friday 28 Nov 2014 (Local Time) from EGOS Reporting Station
Haze Haze  
Wind Chill: 50°   Ceiling: 1000
Heat Index: 50°   Visibility: 2.5mi
Dew Point: 48°   Wind: 8mph
Humidity: 94%   Direction: 60°ENE
Pressure: 29.62"   Gusts: NA
Location:  52.9°N, 3.04°W
Report Text: EGOS 280850Z 06007KT 4000 HZ FEW007 BKN010 OVC020 10/09 Q1003 GRN BECMG 5000 HZ GRN
Loading
Personal Weather Stations






























Interactive Weather Map New forecast layout! Learn more

10-Day Weather Forecast

Advertisements
Track Severe Weather on mobile